sensor_id;sensor_type;location;lat;lon;timestamp;temperature;humidity
75927;DHT22;64605;48.296;16.416;2023-03-17T00:01:16;4.10;46.30
75927;DHT22;64605;48.296;16.416;2023-03-17T00:03:44;4.10;46.50
75927;DHT22;64605;48.296;16.416;2023-03-17T00:06:15;4.10;46.80
75927;DHT22;64605;48.296;16.416;2023-03-17T00:08:42;4.10;46.50
75927;DHT22;64605;48.296;16.416;2023-03-17T00:11:12;4.10;46.50
75927;DHT22;64605;48.296;16.416;2023-03-17T00:13:38;4.00;46.60
75927;DHT22;64605;48.296;16.416;2023-03-17T00:16:05;4.00;46.60
75927;DHT22;64605;48.296;16.416;2023-03-17T00:18:32;4.00;46.40
75927;DHT22;64605;48.296;16.416;2023-03-17T00:20:59;4.00;46.50
75927;DHT22;64605;48.296;16.416;2023-03-17T00:23:25;3.90;46.70
75927;DHT22;64605;48.296;16.416;2023-03-17T00:25:51;3.90;46.50
75927;DHT22;64605;48.296;16.416;2023-03-17T00:28:25;3.90;46.40
75927;DHT22;64605;48.296;16.416;2023-03-17T00:30:57;3.80;46.30
75927;DHT22;64605;48.296;16.416;2023-03-17T00:33:28;3.80;46.80
75927;DHT22;64605;48.296;16.416;2023-03-17T00:35:55;3.80;47.30
75927;DHT22;64605;48.296;16.416;2023-03-17T00:38:21;3.80;48.60
75927;DHT22;64605;48.296;16.416;2023-03-17T00:40:49;3.70;47.00
75927;DHT22;64605;48.296;16.416;2023-03-17T00:43:15;3.70;46.90
75927;DHT22;64605;48.296;16.416;2023-03-17T00:45:42;3.70;46.90
75927;DHT22;64605;48.296;16.416;2023-03-17T00:48:17;3.60;47.30
75927;DHT22;64605;48.296;16.416;2023-03-17T00:50:44;3.60;47.50
75927;DHT22;64605;48.296;16.416;2023-03-17T00:53:18;3.60;47.40
75927;DHT22;64605;48.296;16.416;2023-03-17T00:55:45;3.60;47.40
75927;DHT22;64605;48.296;16.416;2023-03-17T00:58:30;3.60;47.60
75927;DHT22;64605;48.296;16.416;2023-03-17T01:00:57;3.60;47.70
75927;DHT22;64605;48.296;16.416;2023-03-17T01:03:24;3.60;47.70
75927;DHT22;64605;48.296;16.416;2023-03-17T01:05:51;3.50;48.20
75927;DHT22;64605;48.296;16.416;2023-03-17T01:08:19;3.40;48.00
75927;DHT22;64605;48.296;16.416;2023-03-17T01:10:45;3.50;48.10
75927;DHT22;64605;48.296;16.416;2023-03-17T01:13:12;3.50;48.30
75927;DHT22;64605;48.296;16.416;2023-03-17T01:15:41;3.50;48.50
75927;DHT22;64605;48.296;16.416;2023-03-17T01:18:09;3.60;48.10
75927;DHT22;64605;48.296;16.416;2023-03-17T01:20:36;3.60;48.20
75927;DHT22;64605;48.296;16.416;2023-03-17T01:23:02;3.60;47.80
75927;DHT22;64605;48.296;16.416;2023-03-17T01:25:28;3.60;47.60
75927;DHT22;64605;48.296;16.416;2023-03-17T01:27:56;3.60;47.70
75927;DHT22;64605;48.296;16.416;2023-03-17T01:32:49;3.60;47.70
75927;DHT22;64605;48.296;16.416;2023-03-17T01:35:15;3.60;47.70
75927;DHT22;64605;48.296;16.416;2023-03-17T01:37:42;3.60;47.50
75927;DHT22;64605;48.296;16.416;2023-03-17T01:40:16;3.60;47.70
75927;DHT22;64605;48.296;16.416;2023-03-17T01:42:57;3.60;47.60
75927;DHT22;64605;48.296;16.416;2023-03-17T01:48:28;3.60;47.60
75927;DHT22;64605;48.296;16.416;2023-03-17T01:50:56;3.60;47.80
75927;DHT22;64605;48.296;16.416;2023-03-17T01:53:23;3.60;47.90
75927;DHT22;64605;48.296;16.416;2023-03-17T01:55:50;3.50;47.90
75927;DHT22;64605;48.296;16.416;2023-03-17T01:58:19;3.60;47.80
75927;DHT22;64605;48.296;16.416;2023-03-17T02:00:45;3.60;47.80
75927;DHT22;64605;48.296;16.416;2023-03-17T02:03:11;3.60;47.80
75927;DHT22;64605;48.296;16.416;2023-03-17T02:05:38;3.60;47.80
75927;DHT22;64605;48.296;16.416;2023-03-17T02:08:10;3.60;47.70
75927;DHT22;64605;48.296;16.416;2023-03-17T02:10:36;3.60;48.00
75927;DHT22;64605;48.296;16.416;2023-03-17T02:13:03;3.60;48.50
75927;DHT22;64605;48.296;16.416;2023-03-17T02:15:41;3.50;48.70
75927;DHT22;64605;48.296;16.416;2023-03-17T02:18:08;3.50;48.50
75927;DHT22;64605;48.296;16.416;2023-03-17T02:23:00;3.50;48.50
75927;DHT22;64605;48.296;16.416;2023-03-17T02:25:28;3.50;48.50
75927;DHT22;64605;48.296;16.416;2023-03-17T02:28:08;3.50;48.60
75927;DHT22;64605;48.296;16.416;2023-03-17T02:30:35;3.40;49.20
75927;DHT22;64605;48.296;16.416;2023-03-17T02:33:01;3.40;49.10
75927;DHT22;64605;48.296;16.416;2023-03-17T02:35:28;3.40;48.90
75927;DHT22;64605;48.296;16.416;2023-03-17T02:37:54;3.40;49.10
75927;DHT22;64605;48.296;16.416;2023-03-17T02:40:21;3.40;49.20
75927;DHT22;64605;48.296;16.416;2023-03-17T02:42:47;3.40;49.30
75927;DHT22;64605;48.296;16.416;2023-03-17T02:45:13;3.40;49.10
75927;DHT22;64605;48.296;16.416;2023-03-17T02:47:40;3.40;49.10
75927;DHT22;64605;48.296;16.416;2023-03-17T02:50:08;3.40;49.30
75927;DHT22;64605;48.296;16.416;2023-03-17T02:52:34;3.40;49.40
75927;DHT22;64605;48.296;16.416;2023-03-17T02:55:00;3.50;49.10
75927;DHT22;64605;48.296;16.416;2023-03-17T02:57:25;3.50;49.00
75927;DHT22;64605;48.296;16.416;2023-03-17T02:59:52;3.40;49.10
75927;DHT22;64605;48.296;16.416;2023-03-17T03:02:18;3.50;49.00
75927;DHT22;64605;48.296;16.416;2023-03-17T03:04:43;3.50;49.10
75927;DHT22;64605;48.296;16.416;2023-03-17T03:07:10;3.50;49.10
75927;DHT22;64605;48.296;16.416;2023-03-17T03:09:36;3.50;49.10
75927;DHT22;64605;48.296;16.416;2023-03-17T03:12:03;3.60;49.00
75927;DHT22;64605;48.296;16.416;2023-03-17T03:14:28;3.50;49.50
75927;DHT22;64605;48.296;16.416;2023-03-17T03:16:54;3.60;49.30
75927;DHT22;64605;48.296;16.416;2023-03-17T03:19:20;3.60;49.10
75927;DHT22;64605;48.296;16.416;2023-03-17T03:21:46;3.60;49.20
75927;DHT22;64605;48.296;16.416;2023-03-17T03:24:12;3.70;49.10
75927;DHT22;64605;48.296;16.416;2023-03-17T03:26:38;3.70;48.80
75927;DHT22;64605;48.296;16.416;2023-03-17T03:29:03;3.80;48.90
75927;DHT22;64605;48.296;16.416;2023-03-17T03:31:29;3.80;49.00
75927;DHT22;64605;48.296;16.416;2023-03-17T03:33:55;3.70;48.90
75927;DHT22;64605;48.296;16.416;2023-03-17T03:36:21;3.70;48.90
75927;DHT22;64605;48.296;16.416;2023-03-17T03:38:47;3.80;49.20
75927;DHT22;64605;48.296;16.416;2023-03-17T03:41:13;3.70;49.00
75927;DHT22;64605;48.296;16.416;2023-03-17T03:43:39;3.70;49.00
75927;DHT22;64605;48.296;16.416;2023-03-17T03:46:05;3.70;48.90
75927;DHT22;64605;48.296;16.416;2023-03-17T03:48:31;3.80;48.80
75927;DHT22;64605;48.296;16.416;2023-03-17T03:50:59;3.80;48.70
75927;DHT22;64605;48.296;16.416;2023-03-17T03:53:25;3.80;48.90
75927;DHT22;64605;48.296;16.416;2023-03-17T03:55:52;3.80;48.90
75927;DHT22;64605;48.296;16.416;2023-03-17T03:58:17;3.70;48.80
75927;DHT22;64605;48.296;16.416;2023-03-17T04:00:43;3.80;48.90
75927;DHT22;64605;48.296;16.416;2023-03-17T04:03:09;3.80;48.90
75927;DHT22;64605;48.296;16.416;2023-03-17T04:05:34;3.70;48.80
75927;DHT22;64605;48.296;16.416;2023-03-17T04:08:00;3.80;48.90
75927;DHT22;64605;48.296;16.416;2023-03-17T04:10:26;3.70;48.70
75927;DHT22;64605;48.296;16.416;2023-03-17T04:12:52;3.70;48.80
75927;DHT22;64605;48.296;16.416;2023-03-17T04:15:19;3.80;48.80
75927;DHT22;64605;48.296;16.416;2023-03-17T04:17:45;3.80;48.60
75927;DHT22;64605;48.296;16.416;2023-03-17T04:20:12;3.70;48.70
75927;DHT22;64605;48.296;16.416;2023-03-17T04:22:39;3.80;48.60
75927;DHT22;64605;48.296;16.416;2023-03-17T04:25:07;3.70;48.50
75927;DHT22;64605;48.296;16.416;2023-03-17T04:27:33;3.70;48.60
75927;DHT22;64605;48.296;16.416;2023-03-17T04:29:58;3.70;48.80
75927;DHT22;64605;48.296;16.416;2023-03-17T04:32:26;3.70;49.00
75927;DHT22;64605;48.296;16.416;2023-03-17T04:34:51;3.70;49.30
75927;DHT22;64605;48.296;16.416;2023-03-17T04:37:17;3.60;49.10
75927;DHT22;64605;48.296;16.416;2023-03-17T04:39:43;3.60;49.30
75927;DHT22;64605;48.296;16.416;2023-03-17T04:42:09;3.60;49.40
75927;DHT22;64605;48.296;16.416;2023-03-17T04:44:34;3.60;49.70
75927;DHT22;64605;48.296;16.416;2023-03-17T04:47:01;3.50;49.60
75927;DHT22;64605;48.296;16.416;2023-03-17T04:49:27;3.40;49.70
75927;DHT22;64605;48.296;16.416;2023-03-17T04:51:53;3.50;49.60
75927;DHT22;64605;48.296;16.416;2023-03-17T04:54:19;3.50;49.60
75927;DHT22;64605;48.296;16.416;2023-03-17T04:56:44;3.50;49.60
75927;DHT22;64605;48.296;16.416;2023-03-17T04:59:10;3.50;49.70
75927;DHT22;64605;48.296;16.416;2023-03-17T05:01:36;3.50;50.00
75927;DHT22;64605;48.296;16.416;2023-03-17T05:04:02;3.40;50.10
75927;DHT22;64605;48.296;16.416;2023-03-17T05:06:28;3.40;50.20
75927;DHT22;64605;48.296;16.416;2023-03-17T05:08:54;3.40;50.40
75927;DHT22;64605;48.296;16.416;2023-03-17T05:11:19;3.40;50.30
75927;DHT22;64605;48.296;16.416;2023-03-17T05:13:45;3.20;50.70
75927;DHT22;64605;48.296;16.416;2023-03-17T05:16:11;3.30;51.00
75927;DHT22;64605;48.296;16.416;2023-03-17T05:18:37;3.30;50.80
75927;DHT22;64605;48.296;16.416;2023-03-17T05:21:04;3.40;50.40
75927;DHT22;64605;48.296;16.416;2023-03-17T05:23:30;3.50;50.30
75927;DHT22;64605;48.296;16.416;2023-03-17T05:25:56;3.50;50.20
75927;DHT22;64605;48.296;16.416;2023-03-17T05:28:23;3.50;50.10
75927;DHT22;64605;48.296;16.416;2023-03-17T05:30:49;3.60;50.10
75927;DHT22;64605;48.296;16.416;2023-03-17T05:33:15;3.60;50.10
75927;DHT22;64605;48.296;16.416;2023-03-17T05:35:42;3.70;49.70
75927;DHT22;64605;48.296;16.416;2023-03-17T05:38:09;3.80;49.40
75927;DHT22;64605;48.296;16.416;2023-03-17T05:40:35;3.90;49.60
75927;DHT22;64605;48.296;16.416;2023-03-17T05:43:03;3.90;49.30
75927;DHT22;64605;48.296;16.416;2023-03-17T05:45:29;4.10;49.10
75927;DHT22;64605;48.296;16.416;2023-03-17T05:47:56;4.20;48.50
75927;DHT22;64605;48.296;16.416;2023-03-17T05:50:22;4.30;48.20
75927;DHT22;64605;48.296;16.416;2023-03-17T05:52:48;4.40;48.10
75927;DHT22;64605;48.296;16.416;2023-03-17T05:55:13;4.60;47.70
75927;DHT22;64605;48.296;16.416;2023-03-17T05:57:40;4.60;47.40
75927;DHT22;64605;48.296;16.416;2023-03-17T06:00:07;4.70;47.20
75927;DHT22;64605;48.296;16.416;2023-03-17T06:02:33;4.80;47.10
75927;DHT22;64605;48.296;16.416;2023-03-17T06:05:00;4.90;46.90
75927;DHT22;64605;48.296;16.416;2023-03-17T06:07:26;4.90;46.70
75927;DHT22;64605;48.296;16.416;2023-03-17T06:09:52;5.10;46.70
75927;DHT22;64605;48.296;16.416;2023-03-17T06:12:18;5.20;46.40
75927;DHT22;64605;48.296;16.416;2023-03-17T06:14:43;5.30;46.20
75927;DHT22;64605;48.296;16.416;2023-03-17T06:17:09;5.40;45.80
75927;DHT22;64605;48.296;16.416;2023-03-17T06:19:37;5.50;45.50
75927;DHT22;64605;48.296;16.416;2023-03-17T06:22:02;5.60;45.50
75927;DHT22;64605;48.296;16.416;2023-03-17T06:24:28;5.60;45.10
75927;DHT22;64605;48.296;16.416;2023-03-17T06:26:53;5.70;44.80
75927;DHT22;64605;48.296;16.416;2023-03-17T06:29:19;6.00;44.40
75927;DHT22;64605;48.296;16.416;2023-03-17T06:31:45;6.10;44.20
75927;DHT22;64605;48.296;16.416;2023-03-17T06:34:19;6.20;43.80
75927;DHT22;64605;48.296;16.416;2023-03-17T06:36:45;6.40;43.30
75927;DHT22;64605;48.296;16.416;2023-03-17T06:39:11;6.50;42.80
75927;DHT22;64605;48.296;16.416;2023-03-17T06:41:37;6.60;42.70
75927;DHT22;64605;48.296;16.416;2023-03-17T06:44:03;6.70;42.30
75927;DHT22;64605;48.296;16.416;2023-03-17T06:46:33;6.80;42.10
75927;DHT22;64605;48.296;16.416;2023-03-17T06:49:00;7.00;41.70
75927;DHT22;64605;48.296;16.416;2023-03-17T06:51:26;7.20;41.00
75927;DHT22;64605;48.296;16.416;2023-03-17T06:53:52;7.30;40.70
75927;DHT22;64605;48.296;16.416;2023-03-17T06:56:17;7.30;40.50
75927;DHT22;64605;48.296;16.416;2023-03-17T06:58:44;7.40;40.60
75927;DHT22;64605;48.296;16.416;2023-03-17T07:01:11;7.60;40.30
75927;DHT22;64605;48.296;16.416;2023-03-17T07:03:39;7.70;39.50
75927;DHT22;64605;48.296;16.416;2023-03-17T07:06:05;7.80;39.10
75927;DHT22;64605;48.296;16.416;2023-03-17T07:08:30;7.90;38.70
75927;DHT22;64605;48.296;16.416;2023-03-17T07:10:57;8.00;38.40
75927;DHT22;64605;48.296;16.416;2023-03-17T07:13:23;8.10;37.70
75927;DHT22;64605;48.296;16.416;2023-03-17T07:15:49;8.30;37.70
75927;DHT22;64605;48.296;16.416;2023-03-17T07:18:15;8.50;36.90
75927;DHT22;64605;48.296;16.416;2023-03-17T07:20:42;8.80;36.90
75927;DHT22;64605;48.296;16.416;2023-03-17T07:23:21;9.30;36.20
75927;DHT22;64605;48.296;16.416;2023-03-17T07:25:47;10.70;34.50
75927;DHT22;64605;48.296;16.416;2023-03-17T07:28:13;13.10;29.70
75927;DHT22;64605;48.296;16.416;2023-03-17T07:30:40;15.20;27.20
75927;DHT22;64605;48.296;16.416;2023-03-17T07:33:14;17.00;25.10
75927;DHT22;64605;48.296;16.416;2023-03-17T07:35:44;18.90;22.20
75927;DHT22;64605;48.296;16.416;2023-03-17T07:38:10;20.10;21.20
75927;DHT22;64605;48.296;16.416;2023-03-17T07:40:36;21.20;20.30
75927;DHT22;64605;48.296;16.416;2023-03-17T07:43:03;22.00;18.90
75927;DHT22;64605;48.296;16.416;2023-03-17T07:45:29;22.30;17.60
75927;DHT22;64605;48.296;16.416;2023-03-17T07:47:55;22.80;17.30
75927;DHT22;64605;48.296;16.416;2023-03-17T07:50:21;23.30;17.30
75927;DHT22;64605;48.296;16.416;2023-03-17T07:52:46;23.60;16.40
75927;DHT22;64605;48.296;16.416;2023-03-17T07:55:12;24.00;16.00
75927;DHT22;64605;48.296;16.416;2023-03-17T07:57:38;24.30;15.60
75927;DHT22;64605;48.296;16.416;2023-03-17T08:00:05;24.10;15.20
75927;DHT22;64605;48.296;16.416;2023-03-17T08:02:36;23.90;15.30
75927;DHT22;64605;48.296;16.416;2023-03-17T08:05:02;23.10;14.90
75927;DHT22;64605;48.296;16.416;2023-03-17T08:07:29;22.30;16.00
75927;DHT22;64605;48.296;16.416;2023-03-17T08:09:56;21.80;16.30
75927;DHT22;64605;48.296;16.416;2023-03-17T08:12:22;22.50;16.50
75927;DHT22;64605;48.296;16.416;2023-03-17T08:14:48;23.10;15.60
75927;DHT22;64605;48.296;16.416;2023-03-17T08:17:14;23.20;15.70
75927;DHT22;64605;48.296;16.416;2023-03-17T08:19:39;22.20;15.90
75927;DHT22;64605;48.296;16.416;2023-03-17T08:22:05;21.60;16.60
75927;DHT22;64605;48.296;16.416;2023-03-17T08:24:31;21.30;16.90
75927;DHT22;64605;48.296;16.416;2023-03-17T08:26:57;22.40;17.40
75927;DHT22;64605;48.296;16.416;2023-03-17T08:29:23;22.90;16.00
75927;DHT22;64605;48.296;16.416;2023-03-17T08:31:49;22.90;15.70
75927;DHT22;64605;48.296;16.416;2023-03-17T08:34:14;23.20;15.90
75927;DHT22;64605;48.296;16.416;2023-03-17T08:36:41;22.70;15.70
75927;DHT22;64605;48.296;16.416;2023-03-17T08:39:07;23.20;15.10
75927;DHT22;64605;48.296;16.416;2023-03-17T08:41:35;22.00;16.00
75927;DHT22;64605;48.296;16.416;2023-03-17T08:44:01;22.40;16.20
75927;DHT22;64605;48.296;16.416;2023-03-17T08:46:29;23.20;15.50
75927;DHT22;64605;48.296;16.416;2023-03-17T08:48:57;22.70;15.40
75927;DHT22;64605;48.296;16.416;2023-03-17T08:51:25;22.50;15.70
75927;DHT22;64605;48.296;16.416;2023-03-17T08:53:52;22.40;15.90
75927;DHT22;64605;48.296;16.416;2023-03-17T08:56:18;22.10;15.70
75927;DHT22;64605;48.296;16.416;2023-03-17T08:58:44;20.90;16.50
75927;DHT22;64605;48.296;16.416;2023-03-17T09:01:11;20.70;17.00
75927;DHT22;64605;48.296;16.416;2023-03-17T09:03:38;21.20;16.90
75927;DHT22;64605;48.296;16.416;2023-03-17T09:06:06;21.50;16.60
75927;DHT22;64605;48.296;16.416;2023-03-17T09:08:35;20.10;17.30
75927;DHT22;64605;48.296;16.416;2023-03-17T09:11:05;19.80;18.10
75927;DHT22;64605;48.296;16.416;2023-03-17T09:13:33;19.20;18.40
75927;DHT22;64605;48.296;16.416;2023-03-17T09:15:59;19.50;18.50
75927;DHT22;64605;48.296;16.416;2023-03-17T09:18:26;19.40;18.70
75927;DHT22;64605;48.296;16.416;2023-03-17T09:20:51;19.20;18.90
75927;DHT22;64605;48.296;16.416;2023-03-17T09:23:17;19.30;18.60
75927;DHT22;64605;48.296;16.416;2023-03-17T09:25:43;19.00;19.10
75927;DHT22;64605;48.296;16.416;2023-03-17T09:28:11;19.10;19.10
75927;DHT22;64605;48.296;16.416;2023-03-17T09:30:39;19.10;18.90
75927;DHT22;64605;48.296;16.416;2023-03-17T09:33:10;18.30;19.40
75927;DHT22;64605;48.296;16.416;2023-03-17T09:35:37;18.10;19.80
75927;DHT22;64605;48.296;16.416;2023-03-17T09:38:02;18.00;19.90
75927;DHT22;64605;48.296;16.416;2023-03-17T09:40:31;18.10;19.70
75927;DHT22;64605;48.296;16.416;2023-03-17T09:45:42;17.80;20.00
75927;DHT22;64605;48.296;16.416;2023-03-17T09:51:09;17.70;19.90
75927;DHT22;64605;48.296;16.416;2023-03-17T09:56:15;18.60;19.80
75927;DHT22;64605;48.296;16.416;2023-03-17T09:58:49;18.70;19.10
75927;DHT22;64605;48.296;16.416;2023-03-17T10:01:16;18.30;19.40
75927;DHT22;64605;48.296;16.416;2023-03-17T10:03:42;18.20;19.40
75927;DHT22;64605;48.296;16.416;2023-03-17T10:06:28;18.20;19.40
75927;DHT22;64605;48.296;16.416;2023-03-17T10:11:47;19.40;19.00
75927;DHT22;64605;48.296;16.416;2023-03-17T10:16:58;22.10;17.60
75927;DHT22;64605;48.296;16.416;2023-03-17T10:25:35;24.80;14.50
75927;DHT22;64605;48.296;16.416;2023-03-17T10:30:31;27.80;13.10
75927;DHT22;64605;48.296;16.416;2023-03-17T10:33:02;27.70;12.70
75927;DHT22;64605;48.296;16.416;2023-03-17T10:35:31;29.80;12.60
75927;DHT22;64605;48.296;16.416;2023-03-17T10:38:00;29.70;11.50
75927;DHT22;64605;48.296;16.416;2023-03-17T10:40:28;28.00;12.40
75927;DHT22;64605;48.296;16.416;2023-03-17T10:43:09;27.90;12.50
75927;DHT22;64605;48.296;16.416;2023-03-17T10:45:39;28.20;12.30
75927;DHT22;64605;48.296;16.416;2023-03-17T10:48:16;29.10;11.90
75927;DHT22;64605;48.296;16.416;2023-03-17T10:50:45;26.90;12.10
75927;DHT22;64605;48.296;16.416;2023-03-17T10:53:25;25.50;12.80
75927;DHT22;64605;48.296;16.416;2023-03-17T10:55:58;24.70;13.70
75927;DHT22;64605;48.296;16.416;2023-03-17T10:58:35;24.70;13.60
75927;DHT22;64605;48.296;16.416;2023-03-17T11:01:05;24.10;13.90
75927;DHT22;64605;48.296;16.416;2023-03-17T11:03:36;24.40;14.10
75927;DHT22;64605;48.296;16.416;2023-03-17T11:08:46;24.00;14.20
75927;DHT22;64605;48.296;16.416;2023-03-17T11:14:10;25.20;14.20
75927;DHT22;64605;48.296;16.416;2023-03-17T11:19:14;26.20;13.40
75927;DHT22;64605;48.296;16.416;2023-03-17T11:24:30;24.10;14.20
75927;DHT22;64605;48.296;16.416;2023-03-17T11:27:10;21.90;16.20
75927;DHT22;64605;48.296;16.416;2023-03-17T11:40:33;15.80;21.60
75927;DHT22;64605;48.296;16.416;2023-03-17T11:46:31;15.00;22.70
75927;DHT22;64605;48.296;16.416;2023-03-17T11:49:18;14.90;23.00
75927;DHT22;64605;48.296;16.416;2023-03-17T11:54:50;14.50;23.40
75927;DHT22;64605;48.296;16.416;2023-03-17T11:59:50;14.50;23.40
75927;DHT22;64605;48.296;16.416;2023-03-17T12:05:04;14.10;24.10
75927;DHT22;64605;48.296;16.416;2023-03-17T12:07:46;14.20;23.60
75927;DHT22;64605;48.296;16.416;2023-03-17T12:10:32;14.10;23.70
75927;DHT22;64605;48.296;16.416;2023-03-17T12:15:47;14.10;23.90
75927;DHT22;64605;48.296;16.416;2023-03-17T12:18:29;14.20;23.50
75927;DHT22;64605;48.296;16.416;2023-03-17T12:20:59;14.10;23.40
75927;DHT22;64605;48.296;16.416;2023-03-17T12:23:49;14.10;23.60
75927;DHT22;64605;48.296;16.416;2023-03-17T12:26:27;14.00;23.90
75927;DHT22;64605;48.296;16.416;2023-03-17T12:29:08;14.00;23.70
75927;DHT22;64605;48.296;16.416;2023-03-17T12:31:40;14.00;23.70
75927;DHT22;64605;48.296;16.416;2023-03-17T12:34:18;14.20;23.80
75927;DHT22;64605;48.296;16.416;2023-03-17T12:36:46;14.00;23.30
75927;DHT22;64605;48.296;16.416;2023-03-17T12:39:17;14.10;23.40
75927;DHT22;64605;48.296;16.416;2023-03-17T12:44:42;14.00;23.60
75927;DHT22;64605;48.296;16.416;2023-03-17T12:47:26;14.10;23.20
75927;DHT22;64605;48.296;16.416;2023-03-17T12:50:06;14.30;23.10
75927;DHT22;64605;48.296;16.416;2023-03-17T12:55:50;14.60;22.90
75927;DHT22;64605;48.296;16.416;2023-03-17T12:58:48;14.30;23.00
75927;DHT22;64605;48.296;16.416;2023-03-17T13:01:41;14.20;23.10
75927;DHT22;64605;48.296;16.416;2023-03-17T13:04:22;14.20;23.40
75927;DHT22;64605;48.296;16.416;2023-03-17T13:07:13;14.10;23.30
75927;DHT22;64605;48.296;16.416;2023-03-17T13:20:51;14.50;22.40
75927;DHT22;64605;48.296;16.416;2023-03-17T13:24:33;14.60;22.20
75927;DHT22;64605;48.296;16.416;2023-03-17T13:27:11;14.30;22.10
75927;DHT22;64605;48.296;16.416;2023-03-17T13:29:40;14.20;22.40
75927;DHT22;64605;48.296;16.416;2023-03-17T13:32:35;14.10;22.80
75927;DHT22;64605;48.296;16.416;2023-03-17T13:35:15;14.10;23.00
75927;DHT22;64605;48.296;16.416;2023-03-17T13:40:29;14.40;22.70
75927;DHT22;64605;48.296;16.416;2023-03-17T13:45:44;14.50;22.10
75927;DHT22;64605;48.296;16.416;2023-03-17T13:48:30;14.40;22.20
75927;DHT22;64605;48.296;16.416;2023-03-17T13:53:54;14.40;21.90
75927;DHT22;64605;48.296;16.416;2023-03-17T14:01:31;14.40;21.70
75927;DHT22;64605;48.296;16.416;2023-03-17T14:04:01;14.40;22.20
75927;DHT22;64605;48.296;16.416;2023-03-17T14:06:28;14.50;22.20
75927;DHT22;64605;48.296;16.416;2023-03-17T14:09:01;14.50;21.50
75927;DHT22;64605;48.296;16.416;2023-03-17T14:11:35;14.50;21.60
75927;DHT22;64605;48.296;16.416;2023-03-17T14:16:36;14.60;22.00
75927;DHT22;64605;48.296;16.416;2023-03-17T14:19:09;14.60;21.70
75927;DHT22;64605;48.296;16.416;2023-03-17T14:21:35;14.60;21.70
75927;DHT22;64605;48.296;16.416;2023-03-17T14:24:20;14.50;21.70
75927;DHT22;64605;48.296;16.416;2023-03-17T14:26:46;14.50;21.60
75927;DHT22;64605;48.296;16.416;2023-03-17T14:29:22;14.50;21.60
75927;DHT22;64605;48.296;16.416;2023-03-17T14:32:03;14.40;21.70
75927;DHT22;64605;48.296;16.416;2023-03-17T14:34:29;14.40;21.80
75927;DHT22;64605;48.296;16.416;2023-03-17T14:36:59;14.40;21.50
75927;DHT22;64605;48.296;16.416;2023-03-17T14:39:26;14.40;21.70
75927;DHT22;64605;48.296;16.416;2023-03-17T14:42:03;14.50;21.80
75927;DHT22;64605;48.296;16.416;2023-03-17T14:44:37;14.70;21.80
75927;DHT22;64605;48.296;16.416;2023-03-17T14:47:06;14.70;21.30
75927;DHT22;64605;48.296;16.416;2023-03-17T14:49:37;14.70;21.40
75927;DHT22;64605;48.296;16.416;2023-03-17T14:52:03;14.60;21.00
75927;DHT22;64605;48.296;16.416;2023-03-17T14:54:33;14.50;21.20
75927;DHT22;64605;48.296;16.416;2023-03-17T14:57:14;14.50;21.30
75927;DHT22;64605;48.296;16.416;2023-03-17T14:59:53;14.40;22.30
75927;DHT22;64605;48.296;16.416;2023-03-17T15:02:22;14.40;21.70
75927;DHT22;64605;48.296;16.416;2023-03-17T15:05:16;14.40;21.70
75927;DHT22;64605;48.296;16.416;2023-03-17T15:07:46;14.40;21.70
75927;DHT22;64605;48.296;16.416;2023-03-17T15:10:24;14.30;21.60
75927;DHT22;64605;48.296;16.416;2023-03-17T15:12:59;14.30;21.70
75927;DHT22;64605;48.296;16.416;2023-03-17T15:15:29;14.30;21.70
75927;DHT22;64605;48.296;16.416;2023-03-17T15:17:57;14.20;21.90
75927;DHT22;64605;48.296;16.416;2023-03-17T15:20:23;14.20;22.10
75927;DHT22;64605;48.296;16.416;2023-03-17T15:23:02;14.10;22.10
75927;DHT22;64605;48.296;16.416;2023-03-17T15:25:33;14.00;22.00
75927;DHT22;64605;48.296;16.416;2023-03-17T15:27:59;13.90;22.20
75927;DHT22;64605;48.296;16.416;2023-03-17T15:30:25;13.80;22.50
75927;DHT22;64605;48.296;16.416;2023-03-17T15:32:57;13.80;22.40
75927;DHT22;64605;48.296;16.416;2023-03-17T15:35:23;13.70;22.60
75927;DHT22;64605;48.296;16.416;2023-03-17T15:37:49;13.70;22.80
75927;DHT22;64605;48.296;16.416;2023-03-17T15:40:15;13.80;23.00
75927;DHT22;64605;48.296;16.416;2023-03-17T15:42:41;13.80;22.70
75927;DHT22;64605;48.296;16.416;2023-03-17T15:45:07;13.70;22.80
75927;DHT22;64605;48.296;16.416;2023-03-17T15:47:35;13.60;22.90
75927;DHT22;64605;48.296;16.416;2023-03-17T15:50:24;13.40;23.00
75927;DHT22;64605;48.296;16.416;2023-03-17T15:52:50;13.40;23.40
75927;DHT22;64605;48.296;16.416;2023-03-17T15:55:27;13.30;23.30
75927;DHT22;64605;48.296;16.416;2023-03-17T15:57:57;13.30;23.40
75927;DHT22;64605;48.296;16.416;2023-03-17T16:00:25;13.30;23.40
75927;DHT22;64605;48.296;16.416;2023-03-17T16:02:54;13.20;23.20
75927;DHT22;64605;48.296;16.416;2023-03-17T16:05:29;13.20;23.30
75927;DHT22;64605;48.296;16.416;2023-03-17T16:07:55;13.10;23.40
75927;DHT22;64605;48.296;16.416;2023-03-17T16:10:27;13.10;23.50
75927;DHT22;64605;48.296;16.416;2023-03-17T16:12:54;13.00;23.10
75927;DHT22;64605;48.296;16.416;2023-03-17T16:15:24;12.90;23.40
75927;DHT22;64605;48.296;16.416;2023-03-17T16:17:56;12.80;23.50
75927;DHT22;64605;48.296;16.416;2023-03-17T16:20:35;12.80;23.30
75927;DHT22;64605;48.296;16.416;2023-03-17T16:23:14;12.80;23.30
75927;DHT22;64605;48.296;16.416;2023-03-17T16:25:41;12.70;23.50
75927;DHT22;64605;48.296;16.416;2023-03-17T16:28:16;12.60;23.40
75927;DHT22;64605;48.296;16.416;2023-03-17T16:30:43;12.60;23.40
75927;DHT22;64605;48.296;16.416;2023-03-17T16:35:45;12.50;23.50
75927;DHT22;64605;48.296;16.416;2023-03-17T16:38:15;12.40;23.70
75927;DHT22;64605;48.296;16.416;2023-03-17T16:40:41;12.40;23.60
75927;DHT22;64605;48.296;16.416;2023-03-17T16:43:22;12.30;23.70
75927;DHT22;64605;48.296;16.416;2023-03-17T16:45:49;12.30;23.80
75927;DHT22;64605;48.296;16.416;2023-03-17T16:48:16;12.20;23.90
75927;DHT22;64605;48.296;16.416;2023-03-17T16:50:42;12.20;24.10
75927;DHT22;64605;48.296;16.416;2023-03-17T16:53:08;12.10;24.20
75927;DHT22;64605;48.296;16.416;2023-03-17T16:55:34;12.10;24.30
75927;DHT22;64605;48.296;16.416;2023-03-17T16:58:06;12.10;24.60
75927;DHT22;64605;48.296;16.416;2023-03-17T17:00:38;12.10;24.80
75927;DHT22;64605;48.296;16.416;2023-03-17T17:03:04;12.00;25.00
75927;DHT22;64605;48.296;16.416;2023-03-17T17:05:30;11.90;25.20
75927;DHT22;64605;48.296;16.416;2023-03-17T17:07:56;11.80;25.30
75927;DHT22;64605;48.296;16.416;2023-03-17T17:10:24;11.80;25.50
75927;DHT22;64605;48.296;16.416;2023-03-17T17:12:50;11.80;25.50
75927;DHT22;64605;48.296;16.416;2023-03-17T17:15:18;11.70;25.50
75927;DHT22;64605;48.296;16.416;2023-03-17T17:17:46;11.70;25.60